Boston, United Kingdom
Current Conditions -  °F | °C
As of 6:50 PM on Wednesday 17 Dec 2014 (Local Time) from EGXC Reporting Station
Broken Clouds Broken Clouds  
Wind Chill: 52°   Ceiling: 12000
Heat Index: 52°   Visibility: 6mi
Dew Point: 48°   Wind: 12mph
Humidity: 88%   Direction: 230°SW
Pressure: 29.62"   Gusts: NA
Location:  52.98°N, 0°W
Report Text: EGXC 171850Z 23010KT 9999 SCT015 BKN120 11/09 Q1003 WHT
Loading
Personal Weather Stations






























Interactive Weather Map New forecast layout! Learn more

10-Day Weather Forecast

Advertisements
Track Severe Weather on mobile